sensor_id;sensor_type;location;lat;lon;timestamp;P1;durP1;ratioP1;P2;durP2;ratioP2
11681;SDS011;5897;42.640;23.310;2023-04-25T00:00:19;1.90;;;1.80;;
11681;SDS011;5897;42.640;23.310;2023-04-25T00:02:46;2.00;;;1.80;;
11681;SDS011;5897;42.640;23.310;2023-04-25T00:05:14;2.00;;;1.90;;
11681;SDS011;5897;42.640;23.310;2023-04-25T00:07:41;1.65;;;1.45;;
11681;SDS011;5897;42.640;23.310;2023-04-25T00:10:08;1.40;;;1.30;;
11681;SDS011;5897;42.640;23.310;2023-04-25T00:12:37;1.33;;;1.20;;
11681;SDS011;5897;42.640;23.310;2023-04-25T00:15:04;1.13;;;1.02;;
11681;SDS011;5897;42.640;23.310;2023-04-25T00:17:31;0.80;;;0.80;;
11681;SDS011;5897;42.640;23.310;2023-04-25T00:19:59;2.10;;;1.42;;
11681;SDS011;5897;42.640;23.310;2023-04-25T00:22:31;1.20;;;1.10;;
11681;SDS011;5897;42.640;23.310;2023-04-25T00:24:58;2.15;;;1.52;;
11681;SDS011;5897;42.640;23.310;2023-04-25T00:27:25;2.78;;;1.80;;
11681;SDS011;5897;42.640;23.310;2023-04-25T00:29:52;1.30;;;1.20;;
11681;SDS011;5897;42.640;23.310;2023-04-25T00:32:19;1.52;;;1.40;;
11681;SDS011;5897;42.640;23.310;2023-04-25T00:34:46;2.40;;;2.20;;
11681;SDS011;5897;42.640;23.310;2023-04-25T00:37:13;3.35;;;3.15;;
11681;SDS011;5897;42.640;23.310;2023-04-25T00:39:41;3.95;;;3.55;;
11681;SDS011;5897;42.640;23.310;2023-04-25T00:42:08;4.03;;;3.72;;
11681;SDS011;5897;42.640;23.310;2023-04-25T00:44:35;4.43;;;4.00;;
11681;SDS011;5897;42.640;23.310;2023-04-25T00:47:03;3.40;;;3.10;;
11681;SDS011;5897;42.640;23.310;2023-04-25T00:49:31;3.42;;;3.13;;
11681;SDS011;5897;42.640;23.310;2023-04-25T00:51:58;3.78;;;3.47;;
11681;SDS011;5897;42.640;23.310;2023-04-25T00:54:24;3.92;;;3.63;;
11681;SDS011;5897;42.640;23.310;2023-04-25T00:56:53;4.40;;;4.00;;
11681;SDS011;5897;42.640;23.310;2023-04-25T00:59:20;5.00;;;4.60;;
11681;SDS011;5897;42.640;23.310;2023-04-25T01:01:47;6.15;;;5.00;;
11681;SDS011;5897;42.640;23.310;2023-04-25T01:04:13;5.70;;;5.10;;
11681;SDS011;5897;42.640;23.310;2023-04-25T01:06:40;5.80;;;5.30;;
11681;SDS011;5897;42.640;23.310;2023-04-25T01:09:07;6.00;;;5.40;;
11681;SDS011;5897;42.640;23.310;2023-04-25T01:14:02;5.25;;;4.75;;
11681;SDS011;5897;42.640;23.310;2023-04-25T01:16:29;5.97;;;4.47;;
11681;SDS011;5897;42.640;23.310;2023-04-25T01:18:56;5.03;;;4.63;;
11681;SDS011;5897;42.640;23.310;2023-04-25T01:21:24;5.25;;;4.78;;
11681;SDS011;5897;42.640;23.310;2023-04-25T01:23:53;7.55;;;6.00;;
11681;SDS011;5897;42.640;23.310;2023-04-25T01:26:20;5.45;;;4.95;;
11681;SDS011;5897;42.640;23.310;2023-04-25T01:28:47;6.63;;;6.03;;
11681;SDS011;5897;42.640;23.310;2023-04-25T01:31:15;6.72;;;6.07;;
11681;SDS011;5897;42.640;23.310;2023-04-25T01:33:43;6.53;;;5.93;;
11681;SDS011;5897;42.640;23.310;2023-04-25T01:36:09;7.15;;;6.55;;
11681;SDS011;5897;42.640;23.310;2023-04-25T01:38:38;5.50;;;5.00;;
11681;SDS011;5897;42.640;23.310;2023-04-25T01:41:06;6.47;;;5.80;;
11681;SDS011;5897;42.640;23.310;2023-04-25T01:43:33;6.82;;;6.15;;
11681;SDS011;5897;42.640;23.310;2023-04-25T01:46:00;6.93;;;6.25;;
11681;SDS011;5897;42.640;23.310;2023-04-25T01:48:27;8.05;;;7.25;;
11681;SDS011;5897;42.640;23.310;2023-04-25T01:50:54;8.05;;;7.35;;
11681;SDS011;5897;42.640;23.310;2023-04-25T01:53:21;7.70;;;6.97;;
11681;SDS011;5897;42.640;23.310;2023-04-25T01:55:49;9.80;;;8.80;;
11681;SDS011;5897;42.640;23.310;2023-04-25T01:58:16;9.15;;;8.25;;
11681;SDS011;5897;42.640;23.310;2023-04-25T02:00:42;8.50;;;7.65;;
11681;SDS011;5897;42.640;23.310;2023-04-25T02:03:09;9.57;;;8.65;;
11681;SDS011;5897;42.640;23.310;2023-04-25T02:05:36;9.40;;;8.50;;
11681;SDS011;5897;42.640;23.310;2023-04-25T02:08:05;9.38;;;8.48;;
11681;SDS011;5897;42.640;23.310;2023-04-25T02:10:33;10.05;;;9.05;;
11681;SDS011;5897;42.640;23.310;2023-04-25T02:13:01;10.40;;;9.32;;
11681;SDS011;5897;42.640;23.310;2023-04-25T02:15:29;10.27;;;8.90;;
11681;SDS011;5897;42.640;23.310;2023-04-25T02:17:56;10.60;;;9.60;;
11681;SDS011;5897;42.640;23.310;2023-04-25T02:20:25;10.70;;;9.60;;
11681;SDS011;5897;42.640;23.310;2023-04-25T02:22:52;10.15;;;9.02;;
11681;SDS011;5897;42.640;23.310;2023-04-25T02:25:19;11.10;;;10.00;;
11681;SDS011;5897;42.640;23.310;2023-04-25T02:27:46;9.90;;;9.00;;
11681;SDS011;5897;42.640;23.310;2023-04-25T02:30:14;10.77;;;9.68;;
11681;SDS011;5897;42.640;23.310;2023-04-25T02:32:41;10.82;;;9.60;;
11681;SDS011;5897;42.640;23.310;2023-04-25T02:35:08;9.90;;;8.50;;
11681;SDS011;5897;42.640;23.310;2023-04-25T02:37:36;9.10;;;8.20;;
11681;SDS011;5897;42.640;23.310;2023-04-25T02:40:04;8.35;;;7.47;;
11681;SDS011;5897;42.640;23.310;2023-04-25T02:42:33;8.88;;;7.85;;
11681;SDS011;5897;42.640;23.310;2023-04-25T02:44:59;6.65;;;6.05;;
11681;SDS011;5897;42.640;23.310;2023-04-25T02:47:28;7.53;;;6.82;;
11681;SDS011;5897;42.640;23.310;2023-04-25T02:49:55;9.25;;;7.03;;
11681;SDS011;5897;42.640;23.310;2023-04-25T02:52:21;8.60;;;7.68;;
11681;SDS011;5897;42.640;23.310;2023-04-25T02:54:48;7.88;;;7.18;;
11681;SDS011;5897;42.640;23.310;2023-04-25T02:57:15;6.15;;;5.65;;
11681;SDS011;5897;42.640;23.310;2023-04-25T02:59:42;6.60;;;6.10;;
11681;SDS011;5897;42.640;23.310;2023-04-25T03:02:09;6.22;;;5.72;;
11681;SDS011;5897;42.640;23.310;2023-04-25T03:04:37;6.93;;;6.32;;
11681;SDS011;5897;42.640;23.310;2023-04-25T03:07:04;7.53;;;6.70;;
11681;SDS011;5897;42.640;23.310;2023-04-25T03:09:31;8.35;;;7.55;;
11681;SDS011;5897;42.640;23.310;2023-04-25T03:11:58;8.48;;;7.68;;
11681;SDS011;5897;42.640;23.310;2023-04-25T03:14:25;8.82;;;7.93;;
11681;SDS011;5897;42.640;23.310;2023-04-25T03:16:52;8.55;;;7.75;;
11681;SDS011;5897;42.640;23.310;2023-04-25T03:19:18;9.27;;;8.38;;
11681;SDS011;5897;42.640;23.310;2023-04-25T03:21:47;9.18;;;8.27;;
11681;SDS011;5897;42.640;23.310;2023-04-25T03:24:14;9.10;;;8.10;;
11681;SDS011;5897;42.640;23.310;2023-04-25T03:26:41;10.00;;;8.43;;
11681;SDS011;5897;42.640;23.310;2023-04-25T03:29:08;10.73;;;9.63;;
11681;SDS011;5897;42.640;23.310;2023-04-25T03:31:34;11.07;;;9.98;;
11681;SDS011;5897;42.640;23.310;2023-04-25T03:34:01;10.65;;;9.55;;
11681;SDS011;5897;42.640;23.310;2023-04-25T03:36:28;10.68;;;9.57;;
11681;SDS011;5897;42.640;23.310;2023-04-25T03:38:56;12.38;;;10.23;;
11681;SDS011;5897;42.640;23.310;2023-04-25T03:41:23;11.63;;;10.50;;
11681;SDS011;5897;42.640;23.310;2023-04-25T03:43:50;13.07;;;11.77;;
11681;SDS011;5897;42.640;23.310;2023-04-25T03:46:16;12.63;;;11.35;;
11681;SDS011;5897;42.640;23.310;2023-04-25T03:48:43;14.70;;;13.30;;
11681;SDS011;5897;42.640;23.310;2023-04-25T03:51:10;13.82;;;12.43;;
11681;SDS011;5897;42.640;23.310;2023-04-25T03:53:37;12.43;;;11.25;;
11681;SDS011;5897;42.640;23.310;2023-04-25T03:56:05;11.20;;;10.10;;
11681;SDS011;5897;42.640;23.310;2023-04-25T03:58:32;11.15;;;9.82;;
11681;SDS011;5897;42.640;23.310;2023-04-25T04:00:59;12.05;;;10.95;;
11681;SDS011;5897;42.640;23.310;2023-04-25T04:03:28;13.00;;;11.80;;
11681;SDS011;5897;42.640;23.310;2023-04-25T04:05:54;10.50;;;9.50;;
11681;SDS011;5897;42.640;23.310;2023-04-25T04:08:21;10.32;;;9.38;;
11681;SDS011;5897;42.640;23.310;2023-04-25T04:10:48;11.18;;;10.07;;
11681;SDS011;5897;42.640;23.310;2023-04-25T04:13:16;11.30;;;10.07;;
11681;SDS011;5897;42.640;23.310;2023-04-25T04:15:42;10.40;;;9.40;;
11681;SDS011;5897;42.640;23.310;2023-04-25T04:18:09;9.73;;;8.82;;
11681;SDS011;5897;42.640;23.310;2023-04-25T04:20:36;9.02;;;8.23;;
11681;SDS011;5897;42.640;23.310;2023-04-25T04:23:03;9.18;;;8.18;;
11681;SDS011;5897;42.640;23.310;2023-04-25T04:25:30;8.95;;;8.13;;
11681;SDS011;5897;42.640;23.310;2023-04-25T04:27:57;8.63;;;7.85;;
11681;SDS011;5897;42.640;23.310;2023-04-25T04:30:25;9.00;;;8.20;;
11681;SDS011;5897;42.640;23.310;2023-04-25T04:32:54;8.90;;;8.10;;
11681;SDS011;5897;42.640;23.310;2023-04-25T04:35:21;8.40;;;7.60;;
11681;SDS011;5897;42.640;23.310;2023-04-25T04:37:48;8.10;;;7.40;;
11681;SDS011;5897;42.640;23.310;2023-04-25T04:40:15;8.60;;;7.82;;
11681;SDS011;5897;42.640;23.310;2023-04-25T04:42:43;8.07;;;7.38;;
11681;SDS011;5897;42.640;23.310;2023-04-25T04:45:11;8.90;;;8.00;;
11681;SDS011;5897;42.640;23.310;2023-04-25T04:47:39;8.48;;;7.68;;
11681;SDS011;5897;42.640;23.310;2023-04-25T04:50:06;7.82;;;7.13;;
11681;SDS011;5897;42.640;23.310;2023-04-25T04:52:34;9.45;;;8.18;;
11681;SDS011;5897;42.640;23.310;2023-04-25T04:55:01;10.27;;;9.27;;
11681;SDS011;5897;42.640;23.310;2023-04-25T04:57:28;10.30;;;9.40;;
11681;SDS011;5897;42.640;23.310;2023-04-25T04:59:56;9.13;;;8.32;;
11681;SDS011;5897;42.640;23.310;2023-04-25T05:02:23;8.70;;;7.90;;
11681;SDS011;5897;42.640;23.310;2023-04-25T05:04:51;8.88;;;8.07;;
11681;SDS011;5897;42.640;23.310;2023-04-25T05:07:18;9.05;;;7.95;;
11681;SDS011;5897;42.640;23.310;2023-04-25T05:09:45;12.02;;;8.82;;
11681;SDS011;5897;42.640;23.310;2023-04-25T05:12:11;8.65;;;7.85;;
11681;SDS011;5897;42.640;23.310;2023-04-25T05:14:38;9.18;;;8.23;;
11681;SDS011;5897;42.640;23.310;2023-04-25T05:17:05;9.27;;;8.38;;
11681;SDS011;5897;42.640;23.310;2023-04-25T05:19:33;9.20;;;8.30;;
11681;SDS011;5897;42.640;23.310;2023-04-25T05:22:02;10.48;;;9.38;;
11681;SDS011;5897;42.640;23.310;2023-04-25T05:24:29;10.60;;;9.60;;
11681;SDS011;5897;42.640;23.310;2023-04-25T05:26:56;10.13;;;9.13;;
11681;SDS011;5897;42.640;23.310;2023-04-25T05:29:23;9.63;;;8.38;;
11681;SDS011;5897;42.640;23.310;2023-04-25T05:31:50;8.95;;;7.88;;
11681;SDS011;5897;42.640;23.310;2023-04-25T05:34:18;8.27;;;7.45;;
11681;SDS011;5897;42.640;23.310;2023-04-25T05:36:44;7.97;;;7.20;;
11681;SDS011;5897;42.640;23.310;2023-04-25T05:39:14;7.60;;;6.90;;
11681;SDS011;5897;42.640;23.310;2023-04-25T05:41:42;10.85;;;8.68;;
11681;SDS011;5897;42.640;23.310;2023-04-25T05:44:08;8.90;;;8.10;;
11681;SDS011;5897;42.640;23.310;2023-04-25T05:46:35;8.52;;;7.63;;
11681;SDS011;5897;42.640;23.310;2023-04-25T05:49:03;8.65;;;7.85;;
11681;SDS011;5897;42.640;23.310;2023-04-25T05:51:29;8.38;;;7.57;;
11681;SDS011;5897;42.640;23.310;2023-04-25T05:53:56;9.15;;;8.35;;
11681;SDS011;5897;42.640;23.310;2023-04-25T05:56:24;9.45;;;8.50;;
11681;SDS011;5897;42.640;23.310;2023-04-25T05:58:52;8.90;;;7.85;;
11681;SDS011;5897;42.640;23.310;2023-04-25T06:01:18;9.05;;;8.20;;
11681;SDS011;5897;42.640;23.310;2023-04-25T06:03:45;8.77;;;7.97;;
11681;SDS011;5897;42.640;23.310;2023-04-25T06:06:12;9.30;;;8.40;;
11681;SDS011;5897;42.640;23.310;2023-04-25T06:08:39;10.43;;;9.52;;
11681;SDS011;5897;42.640;23.310;2023-04-25T06:11:06;10.52;;;9.60;;
11681;SDS011;5897;42.640;23.310;2023-04-25T06:13:34;11.27;;;9.63;;
11681;SDS011;5897;42.640;23.310;2023-04-25T06:16:01;9.05;;;8.25;;
11681;SDS011;5897;42.640;23.310;2023-04-25T06:18:28;9.05;;;8.18;;
11681;SDS011;5897;42.640;23.310;2023-04-25T06:20:54;8.95;;;8.05;;
11681;SDS011;5897;42.640;23.310;2023-04-25T06:23:21;9.00;;;8.10;;
11681;SDS011;5897;42.640;23.310;2023-04-25T06:25:48;9.50;;;8.60;;
11681;SDS011;5897;42.640;23.310;2023-04-25T06:28:14;10.23;;;9.32;;
11681;SDS011;5897;42.640;23.310;2023-04-25T06:30:42;11.48;;;10.27;;
11681;SDS011;5897;42.640;23.310;2023-04-25T06:33:09;13.27;;;10.65;;
11681;SDS011;5897;42.640;23.310;2023-04-25T06:35:36;13.80;;;11.85;;
11681;SDS011;5897;42.640;23.310;2023-04-25T06:38:03;12.88;;;11.57;;
11681;SDS011;5897;42.640;23.310;2023-04-25T06:40:30;10.07;;;9.20;;
11681;SDS011;5897;42.640;23.310;2023-04-25T06:42:56;12.18;;;9.07;;
11681;SDS011;5897;42.640;23.310;2023-04-25T06:45:23;7.90;;;7.20;;
11681;SDS011;5897;42.640;23.310;2023-04-25T06:47:51;8.13;;;6.80;;
11681;SDS011;5897;42.640;23.310;2023-04-25T06:50:18;10.13;;;7.68;;
11681;SDS011;5897;42.640;23.310;2023-04-25T06:52:45;9.65;;;7.78;;
11681;SDS011;5897;42.640;23.310;2023-04-25T06:55:11;9.50;;;8.70;;
11681;SDS011;5897;42.640;23.310;2023-04-25T06:57:38;9.10;;;8.40;;
11681;SDS011;5897;42.640;23.310;2023-04-25T07:00:05;8.82;;;8.02;;
11681;SDS011;5897;42.640;23.310;2023-04-25T07:02:34;8.57;;;7.85;;
11681;SDS011;5897;42.640;23.310;2023-04-25T07:05:03;7.95;;;7.18;;
11681;SDS011;5897;42.640;23.310;2023-04-25T07:07:30;6.38;;;5.80;;
11681;SDS011;5897;42.640;23.310;2023-04-25T07:09:57;7.35;;;6.65;;
11681;SDS011;5897;42.640;23.310;2023-04-25T07:12:24;8.25;;;7.55;;
11681;SDS011;5897;42.640;23.310;2023-04-25T07:14:50;9.20;;;7.57;;
11681;SDS011;5897;42.640;23.310;2023-04-25T07:17:17;9.23;;;7.70;;
11681;SDS011;5897;42.640;23.310;2023-04-25T07:19:44;10.38;;;8.52;;
11681;SDS011;5897;42.640;23.310;2023-04-25T07:22:12;11.55;;;8.45;;
11681;SDS011;5897;42.640;23.310;2023-04-25T07:24:39;10.75;;;8.02;;
11681;SDS011;5897;42.640;23.310;2023-04-25T07:27:06;9.73;;;8.00;;
11681;SDS011;5897;42.640;23.310;2023-04-25T07:29:32;9.07;;;7.78;;
11681;SDS011;5897;42.640;23.310;2023-04-25T07:32:02;9.35;;;7.80;;
11681;SDS011;5897;42.640;23.310;2023-04-25T07:34:29;8.88;;;7.07;;
11681;SDS011;5897;42.640;23.310;2023-04-25T07:36:57;7.75;;;6.95;;
11681;SDS011;5897;42.640;23.310;2023-04-25T07:39:25;10.65;;;8.40;;
11681;SDS011;5897;42.640;23.310;2023-04-25T07:41:52;9.32;;;7.95;;
11681;SDS011;5897;42.640;23.310;2023-04-25T07:44:19;8.38;;;6.15;;
11681;SDS011;5897;42.640;23.310;2023-04-25T07:46:46;11.50;;;7.13;;
11681;SDS011;5897;42.640;23.310;2023-04-25T07:49:13;8.68;;;6.40;;
11681;SDS011;5897;42.640;23.310;2023-04-25T07:51:40;8.20;;;5.97;;
11681;SDS011;5897;42.640;23.310;2023-04-25T07:54:08;7.93;;;6.43;;
11681;SDS011;5897;42.640;23.310;2023-04-25T07:56:36;11.25;;;6.30;;
11681;SDS011;5897;42.640;23.310;2023-04-25T07:59:03;13.50;;;7.32;;
11681;SDS011;5897;42.640;23.310;2023-04-25T08:01:30;9.00;;;7.43;;
11681;SDS011;5897;42.640;23.310;2023-04-25T08:03:57;7.65;;;6.85;;
11681;SDS011;5897;42.640;23.310;2023-04-25T08:06:23;8.05;;;6.47;;
11681;SDS011;5897;42.640;23.310;2023-04-25T08:08:50;10.88;;;7.15;;
11681;SDS011;5897;42.640;23.310;2023-04-25T08:11:17;11.38;;;7.43;;
11681;SDS011;5897;42.640;23.310;2023-04-25T08:13:45;8.25;;;6.35;;
11681;SDS011;5897;42.640;23.310;2023-04-25T08:16:11;9.75;;;6.57;;
11681;SDS011;5897;42.640;23.310;2023-04-25T08:18:38;8.25;;;7.20;;
11681;SDS011;5897;42.640;23.310;2023-04-25T08:21:05;13.18;;;11.85;;
11681;SDS011;5897;42.640;23.310;2023-04-25T08:23:34;10.85;;;9.75;;
11681;SDS011;5897;42.640;23.310;2023-04-25T08:26:00;12.98;;;7.53;;
11681;SDS011;5897;42.640;23.310;2023-04-25T08:28:28;8.05;;;6.45;;
11681;SDS011;5897;42.640;23.310;2023-04-25T08:30:56;10.45;;;6.22;;
11681;SDS011;5897;42.640;23.310;2023-04-25T08:33:23;7.28;;;5.03;;
11681;SDS011;5897;42.640;23.310;2023-04-25T08:35:50;5.10;;;4.05;;
11681;SDS011;5897;42.640;23.310;2023-04-25T08:38:16;6.85;;;4.35;;
11681;SDS011;5897;42.640;23.310;2023-04-25T08:40:44;6.28;;;3.90;;
11681;SDS011;5897;42.640;23.310;2023-04-25T08:43:17;3.03;;;2.55;;
11681;SDS011;5897;42.640;23.310;2023-04-25T08:45:46;4.70;;;3.10;;
11681;SDS011;5897;42.640;23.310;2023-04-25T08:48:15;4.28;;;2.58;;
11681;SDS011;5897;42.640;23.310;2023-04-25T08:50:44;2.58;;;2.35;;
11681;SDS011;5897;42.640;23.310;2023-04-25T08:53:16;3.60;;;2.42;;
11681;SDS011;5897;42.640;23.310;2023-04-25T08:55:45;4.43;;;3.38;;
11681;SDS011;5897;42.640;23.310;2023-04-25T08:58:12;2.30;;;2.08;;
11681;SDS011;5897;42.640;23.310;2023-04-25T09:00:39;4.45;;;2.67;;
11681;SDS011;5897;42.640;23.310;2023-04-25T09:03:06;3.78;;;2.92;;
11681;SDS011;5897;42.640;23.310;2023-04-25T09:05:35;3.92;;;3.50;;
11681;SDS011;5897;42.640;23.310;2023-04-25T09:08:01;4.90;;;4.40;;
11681;SDS011;5897;42.640;23.310;2023-04-25T09:10:28;4.90;;;4.00;;
11681;SDS011;5897;42.640;23.310;2023-04-25T09:13:02;5.60;;;4.68;;
11681;SDS011;5897;42.640;23.310;2023-04-25T09:15:30;6.38;;;4.20;;
11681;SDS011;5897;42.640;23.310;2023-04-25T09:17:57;6.20;;;4.05;;
11681;SDS011;5897;42.640;23.310;2023-04-25T09:20:25;4.80;;;3.95;;
11681;SDS011;5897;42.640;23.310;2023-04-25T09:23:02;7.82;;;4.60;;
11681;SDS011;5897;42.640;23.310;2023-04-25T09:25:33;6.90;;;4.63;;
11681;SDS011;5897;42.640;23.310;2023-04-25T09:28:04;6.20;;;4.82;;
11681;SDS011;5897;42.640;23.310;2023-04-25T09:30:32;7.03;;;5.28;;
11681;SDS011;5897;42.640;23.310;2023-04-25T09:33:03;6.03;;;5.30;;
11681;SDS011;5897;42.640;23.310;2023-04-25T09:35:34;9.75;;;6.00;;
11681;SDS011;5897;42.640;23.310;2023-04-25T09:38:08;8.40;;;5.70;;
11681;SDS011;5897;42.640;23.310;2023-04-25T09:40:38;6.07;;;5.47;;
11681;SDS011;5897;42.640;23.310;2023-04-25T09:43:08;6.30;;;4.45;;
11681;SDS011;5897;42.640;23.310;2023-04-25T09:45:40;7.22;;;6.07;;
11681;SDS011;5897;42.640;23.310;2023-04-25T09:48:10;5.65;;;5.05;;
11681;SDS011;5897;42.640;23.310;2023-04-25T09:50:37;3.63;;;3.00;;
11681;SDS011;5897;42.640;23.310;2023-04-25T09:53:05;2.95;;;2.72;;
11681;SDS011;5897;42.640;23.310;2023-04-25T09:55:33;2.28;;;2.08;;
11681;SDS011;5897;42.640;23.310;2023-04-25T09:58:03;1.95;;;1.80;;
11681;SDS011;5897;42.640;23.310;2023-04-25T10:00:32;1.90;;;1.40;;
11681;SDS011;5897;42.640;23.310;2023-04-25T10:03:01;1.42;;;1.20;;
11681;SDS011;5897;42.640;23.310;2023-04-25T10:05:30;0.85;;;0.75;;
11681;SDS011;5897;42.640;23.310;2023-04-25T10:07:58;0.80;;;0.80;;
11681;SDS011;5897;42.640;23.310;2023-04-25T10:10:26;1.00;;;0.82;;
11681;SDS011;5897;42.640;23.310;2023-04-25T10:12:55;1.20;;;1.05;;
11681;SDS011;5897;42.640;23.310;2023-04-25T10:15:22;0.95;;;0.70;;
11681;SDS011;5897;42.640;23.310;2023-04-25T10:17:49;0.95;;;0.93;;
11681;SDS011;5897;42.640;23.310;2023-04-25T10:20:17;1.13;;;0.60;;
11681;SDS011;5897;42.640;23.310;2023-04-25T10:22:44;0.70;;;0.70;;
11681;SDS011;5897;42.640;23.310;2023-04-25T10:25:13;0.80;;;0.80;;
11681;SDS011;5897;42.640;23.310;2023-04-25T10:27:41;0.85;;;0.82;;
11681;SDS011;5897;42.640;23.310;2023-04-25T10:30:10;3.67;;;1.15;;
11681;SDS011;5897;42.640;23.310;2023-04-25T10:32:41;3.22;;;0.80;;
11681;SDS011;5897;42.640;23.310;2023-04-25T10:35:12;0.70;;;0.70;;
11681;SDS011;5897;42.640;23.310;2023-04-25T10:37:59;0.80;;;0.70;;
11681;SDS011;5897;42.640;23.310;2023-04-25T10:40:29;1.42;;;0.70;;
11681;SDS011;5897;42.640;23.310;2023-04-25T10:42:57;0.63;;;0.60;;
11681;SDS011;5897;42.640;23.310;2023-04-25T10:46:16;2.00;;;1.38;;
11681;SDS011;5897;42.640;23.310;2023-04-25T10:48:48;3.53;;;2.28;;
11681;SDS011;5897;42.640;23.310;2023-04-25T10:51:16;6.65;;;2.55;;
11681;SDS011;5897;42.640;23.310;2023-04-25T10:53:45;2.58;;;0.80;;
11681;SDS011;5897;42.640;23.310;2023-04-25T10:56:16;1.73;;;0.50;;
11681;SDS011;5897;42.640;23.310;2023-04-25T10:58:44;1.00;;;0.70;;
11681;SDS011;5897;42.640;23.310;2023-04-25T11:01:12;0.40;;;0.40;;
11681;SDS011;5897;42.640;23.310;2023-04-25T11:03:43;1.08;;;0.82;;
11681;SDS011;5897;42.640;23.310;2023-04-25T11:06:17;2.45;;;0.75;;
11681;SDS011;5897;42.640;23.310;2023-04-25T11:08:49;0.70;;;0.70;;
11681;SDS011;5897;42.640;23.310;2023-04-25T11:11:17;0.90;;;0.70;;
11681;SDS011;5897;42.640;23.310;2023-04-25T11:13:47;2.00;;;1.00;;
11681;SDS011;5897;42.640;23.310;2023-04-25T11:16:15;0.70;;;0.70;;
11681;SDS011;5897;42.640;23.310;2023-04-25T11:18:43;1.50;;;0.77;;
11681;SDS011;5897;42.640;23.310;2023-04-25T11:21:11;3.33;;;0.70;;
11681;SDS011;5897;42.640;23.310;2023-04-25T11:23:38;1.23;;;0.70;;
11681;SDS011;5897;42.640;23.310;2023-04-25T11:26:05;7.35;;;1.08;;
11681;SDS011;5897;42.640;23.310;2023-04-25T11:28:32;2.95;;;0.80;;
11681;SDS011;5897;42.640;23.310;2023-04-25T11:30:59;3.95;;;0.85;;
11681;SDS011;5897;42.640;23.310;2023-04-25T11:33:26;5.57;;;1.00;;
11681;SDS011;5897;42.640;23.310;2023-04-25T11:35:54;1.92;;;0.80;;
11681;SDS011;5897;42.640;23.310;2023-04-25T11:38:22;1.02;;;0.80;;
11681;SDS011;5897;42.640;23.310;2023-04-25T11:40:51;3.78;;;1.05;;
11681;SDS011;5897;42.640;23.310;2023-04-25T11:43:19;1.25;;;0.90;;
11681;SDS011;5897;42.640;23.310;2023-04-25T11:45:47;1.38;;;0.90;;
11681;SDS011;5897;42.640;23.310;2023-04-25T11:48:14;0.93;;;0.80;;
11681;SDS011;5897;42.640;23.310;2023-04-25T11:50:41;3.08;;;0.73;;
11681;SDS011;5897;42.640;23.310;2023-04-25T11:53:10;2.15;;;1.00;;
11681;SDS011;5897;42.640;23.310;2023-04-25T11:55:36;1.30;;;0.70;;
11681;SDS011;5897;42.640;23.310;2023-04-25T11:58:04;2.42;;;1.05;;
11681;SDS011;5897;42.640;23.310;2023-04-25T12:00:31;1.30;;;0.80;;
11681;SDS011;5897;42.640;23.310;2023-04-25T12:02:58;1.70;;;1.20;;
11681;SDS011;5897;42.640;23.310;2023-04-25T12:05:26;2.10;;;1.40;;
11681;SDS011;5897;42.640;23.310;2023-04-25T12:07:55;3.95;;;2.05;;
11681;SDS011;5897;42.640;23.310;2023-04-25T12:10:24;4.13;;;2.03;;
11681;SDS011;5897;42.640;23.310;2023-04-25T12:12:51;1.90;;;1.73;;
11681;SDS011;5897;42.640;23.310;2023-04-25T12:15:22;2.25;;;1.67;;
11681;SDS011;5897;42.640;23.310;2023-04-25T12:17:51;5.72;;;1.60;;
11681;SDS011;5897;42.640;23.310;2023-04-25T12:20:20;1.35;;;1.00;;
11681;SDS011;5897;42.640;23.310;2023-04-25T12:22:49;0.80;;;0.80;;
11681;SDS011;5897;42.640;23.310;2023-04-25T12:28:13;0.82;;;0.52;;
11681;SDS011;5897;42.640;23.310;2023-04-25T12:30:56;1.00;;;0.60;;
11681;SDS011;5897;42.640;23.310;2023-04-25T12:33:24;0.70;;;0.70;;
11681;SDS011;5897;42.640;23.310;2023-04-25T12:35:52;2.40;;;1.00;;
11681;SDS011;5897;42.640;23.310;2023-04-25T12:38:22;4.78;;;1.30;;
11681;SDS011;5897;42.640;23.310;2023-04-25T12:40:52;1.15;;;1.02;;
11681;SDS011;5897;42.640;23.310;2023-04-25T12:43:19;1.60;;;0.80;;
11681;SDS011;5897;42.640;23.310;2023-04-25T12:45:47;0.98;;;0.82;;
11681;SDS011;5897;42.640;23.310;2023-04-25T12:48:15;3.33;;;0.90;;
11681;SDS011;5897;42.640;23.310;2023-04-25T12:50:42;0.77;;;0.73;;
11681;SDS011;5897;42.640;23.310;2023-04-25T12:53:09;0.68;;;0.50;;
11681;SDS011;5897;42.640;23.310;2023-04-25T12:55:36;1.00;;;0.77;;
11681;SDS011;5897;42.640;23.310;2023-04-25T12:58:05;0.93;;;0.88;;
11681;SDS011;5897;42.640;23.310;2023-04-25T13:00:31;0.90;;;0.77;;
11681;SDS011;5897;42.640;23.310;2023-04-25T13:02:58;0.85;;;0.85;;
11681;SDS011;5897;42.640;23.310;2023-04-25T13:05:25;3.70;;;0.88;;
11681;SDS011;5897;42.640;23.310;2023-04-25T13:07:52;2.13;;;1.00;;
11681;SDS011;5897;42.640;23.310;2023-04-25T13:10:19;4.82;;;1.35;;
11681;SDS011;5897;42.640;23.310;2023-04-25T13:12:46;2.47;;;0.80;;
11681;SDS011;5897;42.640;23.310;2023-04-25T13:15:14;0.95;;;0.70;;
11681;SDS011;5897;42.640;23.310;2023-04-25T13:17:41;0.93;;;0.93;;
11681;SDS011;5897;42.640;23.310;2023-04-25T13:20:08;2.05;;;0.98;;
11681;SDS011;5897;42.640;23.310;2023-04-25T13:22:37;1.70;;;0.90;;
11681;SDS011;5897;42.640;23.310;2023-04-25T13:25:05;1.30;;;1.20;;
11681;SDS011;5897;42.640;23.310;2023-04-25T13:27:33;3.70;;;1.30;;
11681;SDS011;5897;42.640;23.310;2023-04-25T13:30:00;1.88;;;0.98;;
11681;SDS011;5897;42.640;23.310;2023-04-25T13:32:33;2.20;;;1.15;;
11681;SDS011;5897;42.640;23.310;2023-04-25T13:35:01;2.88;;;1.33;;
11681;SDS011;5897;42.640;23.310;2023-04-25T13:37:28;2.45;;;1.48;;
11681;SDS011;5897;42.640;23.310;2023-04-25T13:39:55;3.55;;;1.60;;
11681;SDS011;5897;42.640;23.310;2023-04-25T13:42:22;4.43;;;1.85;;
11681;SDS011;5897;42.640;23.310;2023-04-25T13:44:49;2.03;;;1.17;;
11681;SDS011;5897;42.640;23.310;2023-04-25T13:47:16;1.20;;;1.10;;
11681;SDS011;5897;42.640;23.310;2023-04-25T13:49:44;3.80;;;1.13;;
11681;SDS011;5897;42.640;23.310;2023-04-25T13:52:11;2.08;;;1.17;;
11681;SDS011;5897;42.640;23.310;2023-04-25T13:54:38;2.45;;;1.20;;
11681;SDS011;5897;42.640;23.310;2023-04-25T13:57:05;2.88;;;1.02;;
11681;SDS011;5897;42.640;23.310;2023-04-25T13:59:31;1.73;;;1.40;;
11681;SDS011;5897;42.640;23.310;2023-04-25T14:01:58;1.50;;;1.40;;
11681;SDS011;5897;42.640;23.310;2023-04-25T14:04:25;1.33;;;1.23;;
11681;SDS011;5897;42.640;23.310;2023-04-25T14:06:54;1.48;;;1.25;;
11681;SDS011;5897;42.640;23.310;2023-04-25T14:09:20;2.95;;;1.70;;
11681;SDS011;5897;42.640;23.310;2023-04-25T14:11:50;2.03;;;1.67;;
11681;SDS011;5897;42.640;23.310;2023-04-25T14:14:17;3.92;;;1.50;;
11681;SDS011;5897;42.640;23.310;2023-04-25T14:16:44;1.10;;;1.00;;
11681;SDS011;5897;42.640;23.310;2023-04-25T14:19:11;1.00;;;0.70;;
11681;SDS011;5897;42.640;23.310;2023-04-25T14:21:37;1.88;;;1.30;;
11681;SDS011;5897;42.640;23.310;2023-04-25T14:24:06;1.00;;;0.88;;
11681;SDS011;5897;42.640;23.310;2023-04-25T14:26:33;1.67;;;0.95;;
11681;SDS011;5897;42.640;23.310;2023-04-25T14:28:59;1.35;;;1.23;;
11681;SDS011;5897;42.640;23.310;2023-04-25T14:31:26;3.75;;;1.45;;
11681;SDS011;5897;42.640;23.310;2023-04-25T14:33:53;2.03;;;1.33;;
11681;SDS011;5897;42.640;23.310;2023-04-25T14:36:20;3.88;;;1.58;;
11681;SDS011;5897;42.640;23.310;2023-04-25T14:38:47;1.85;;;1.33;;
11681;SDS011;5897;42.640;23.310;2023-04-25T14:41:15;2.03;;;1.25;;
11681;SDS011;5897;42.640;23.310;2023-04-25T14:43:42;1.58;;;1.00;;
11681;SDS011;5897;42.640;23.310;2023-04-25T14:46:10;1.17;;;1.08;;
11681;SDS011;5897;42.640;23.310;2023-04-25T14:48:37;1.30;;;1.13;;
11681;SDS011;5897;42.640;23.310;2023-04-25T14:51:04;2.35;;;1.80;;
11681;SDS011;5897;42.640;23.310;2023-04-25T14:53:31;2.45;;;1.55;;